KSNA/SNA METAR and TAF weather

Enter ICAO airport designator
Station Type Date Time Source
KSNA METAR 2021/04/17 01:53 UTC NOAA

KSNA 170153Z 24005KT 10SM FEW018 18/11 A2991 RMK AO2 SLP129 T01780111


Station Type Date Time Source
KSNA Decoded METAR 2021/04/17 01:53 UTC NOAA

SANTA ANA WAYNE ORANGE CTY, CA, United States (KSNA) 33-41N 117-52W 15M
Apr 16, 2021 - 09:53 PM EDT / 2021.04.17 0153 UTC
Wind: from the WSW (240 degrees) at 6 MPH (5 KT):0
Visibility: 10 mile(s):0
Sky conditions: mostly clear
Temperature: 64.0 F (17.8 C)
Dew Point: 52.0 F (11.1 C)
Relative Humidity: 64%
Pressure (altimeter): 29.91 in. Hg (1012 hPa)
ob: KSNA 170153Z 24005KT 10SM FEW018 18/11 A2991 RMK AO2 SLP129 T01780111
cycle: 2

Station Type Date Time Source
KSNA TAF 2021/04/16 18:40 UTC NOAA

TAF KSNA 161738Z 1618/1718 22005KT P6SM FEW030
FM161900 22009KT P6SM FEW030
FM170400 VRB04KT P6SM SCT020
FM170900 VRB03KT P6SM BKN020
FM171100 VRB02KT P6SM BKN013
FM171500 VRB03KT P6SM SCT020

Example: see airport list